sensor_id;sensor_type;location;lat;lon;timestamp;temperature;humidity
37050;DHT22;22958;51.232;6.826;2023-08-17T00:02:13;18.50;99.90
37050;DHT22;22958;51.232;6.826;2023-08-17T00:04:40;18.50;99.90
37050;DHT22;22958;51.232;6.826;2023-08-17T00:07:06;18.50;99.90
37050;DHT22;22958;51.232;6.826;2023-08-17T00:09:32;18.50;99.90
37050;DHT22;22958;51.232;6.826;2023-08-17T00:11:57;18.50;99.90
37050;DHT22;22958;51.232;6.826;2023-08-17T00:14:23;18.50;99.90
37050;DHT22;22958;51.232;6.826;2023-08-17T00:16:51;18.50;99.90
37050;DHT22;22958;51.232;6.826;2023-08-17T00:19:17;18.50;99.90
37050;DHT22;22958;51.232;6.826;2023-08-17T00:21:44;18.40;99.90
37050;DHT22;22958;51.232;6.826;2023-08-17T00:24:10;18.50;99.90
37050;DHT22;22958;51.232;6.826;2023-08-17T00:26:35;18.40;99.90
37050;DHT22;22958;51.232;6.826;2023-08-17T00:29:01;18.40;99.90
37050;DHT22;22958;51.232;6.826;2023-08-17T00:31:27;18.50;99.90
37050;DHT22;22958;51.232;6.826;2023-08-17T00:33:52;18.40;99.90
37050;DHT22;22958;51.232;6.826;2023-08-17T00:36:18;18.40;99.90
37050;DHT22;22958;51.232;6.826;2023-08-17T00:38:43;18.50;99.90
37050;DHT22;22958;51.232;6.826;2023-08-17T00:41:09;18.40;99.90
37050;DHT22;22958;51.232;6.826;2023-08-17T00:43:37;18.40;99.90
37050;DHT22;22958;51.232;6.826;2023-08-17T00:46:03;18.40;99.90
37050;DHT22;22958;51.232;6.826;2023-08-17T00:48:29;18.40;99.90
37050;DHT22;22958;51.232;6.826;2023-08-17T00:50:56;18.30;99.90
37050;DHT22;22958;51.232;6.826;2023-08-17T00:53:23;18.30;99.90
37050;DHT22;22958;51.232;6.826;2023-08-17T00:55:50;18.30;99.90
37050;DHT22;22958;51.232;6.826;2023-08-17T00:58:17;18.30;99.90
37050;DHT22;22958;51.232;6.826;2023-08-17T01:00:43;18.30;99.90
37050;DHT22;22958;51.232;6.826;2023-08-17T01:03:08;18.30;99.90
37050;DHT22;22958;51.232;6.826;2023-08-17T01:05:34;18.30;99.90
37050;DHT22;22958;51.232;6.826;2023-08-17T01:07:59;18.20;99.90
37050;DHT22;22958;51.232;6.826;2023-08-17T01:10:47;18.20;99.90
37050;DHT22;22958;51.232;6.826;2023-08-17T01:13:24;18.30;99.90
37050;DHT22;22958;51.232;6.826;2023-08-17T01:15:55;18.30;99.90
37050;DHT22;22958;51.232;6.826;2023-08-17T01:18:29;18.30;99.90
37050;DHT22;22958;51.232;6.826;2023-08-17T01:20:57;18.20;99.90
37050;DHT22;22958;51.232;6.826;2023-08-17T01:23:22;18.30;99.90
37050;DHT22;22958;51.232;6.826;2023-08-17T01:25:48;18.30;99.90
37050;DHT22;22958;51.232;6.826;2023-08-17T01:28:14;18.30;99.90
37050;DHT22;22958;51.232;6.826;2023-08-17T01:31:08;18.20;99.90
37050;DHT22;22958;51.232;6.826;2023-08-17T01:33:40;18.20;99.90
37050;DHT22;22958;51.232;6.826;2023-08-17T01:36:17;18.30;99.90
37050;DHT22;22958;51.232;6.826;2023-08-17T01:38:44;18.30;99.90
37050;DHT22;22958;51.232;6.826;2023-08-17T01:41:11;18.30;99.90
37050;DHT22;22958;51.232;6.826;2023-08-17T01:43:41;18.30;99.90
37050;DHT22;22958;51.232;6.826;2023-08-17T01:46:13;18.30;99.90
37050;DHT22;22958;51.232;6.826;2023-08-17T01:48:40;18.30;99.90
37050;DHT22;22958;51.232;6.826;2023-08-17T01:51:06;18.30;99.90
37050;DHT22;22958;51.232;6.826;2023-08-17T01:53:31;18.30;99.90
37050;DHT22;22958;51.232;6.826;2023-08-17T01:55:57;18.20;99.90
37050;DHT22;22958;51.232;6.826;2023-08-17T01:58:22;18.30;99.90
37050;DHT22;22958;51.232;6.826;2023-08-17T02:00:48;18.20;99.90
37050;DHT22;22958;51.232;6.826;2023-08-17T02:03:13;18.30;99.90
37050;DHT22;22958;51.232;6.826;2023-08-17T02:05:44;18.30;99.90
37050;DHT22;22958;51.232;6.826;2023-08-17T02:08:10;18.30;99.90
37050;DHT22;22958;51.232;6.826;2023-08-17T02:10:36;18.30;99.90
37050;DHT22;22958;51.232;6.826;2023-08-17T02:13:02;18.30;99.90
37050;DHT22;22958;51.232;6.826;2023-08-17T02:15:27;18.20;99.90
37050;DHT22;22958;51.232;6.826;2023-08-17T02:17:53;18.20;99.90
37050;DHT22;22958;51.232;6.826;2023-08-17T02:20:18;18.10;99.90
37050;DHT22;22958;51.232;6.826;2023-08-17T02:22:44;18.10;99.90
37050;DHT22;22958;51.232;6.826;2023-08-17T02:25:09;18.00;99.90
37050;DHT22;22958;51.232;6.826;2023-08-17T02:27:35;18.00;99.90
37050;DHT22;22958;51.232;6.826;2023-08-17T02:30:01;17.90;99.90
37050;DHT22;22958;51.232;6.826;2023-08-17T02:32:26;17.90;99.90
37050;DHT22;22958;51.232;6.826;2023-08-17T02:34:52;17.80;99.90
37050;DHT22;22958;51.232;6.826;2023-08-17T02:37:17;17.70;99.90
37050;DHT22;22958;51.232;6.826;2023-08-17T02:39:43;17.80;99.90
37050;DHT22;22958;51.232;6.826;2023-08-17T02:42:08;17.70;99.90
37050;DHT22;22958;51.232;6.826;2023-08-17T02:44:34;17.60;99.90
37050;DHT22;22958;51.232;6.826;2023-08-17T02:46:59;17.70;99.90
37050;DHT22;22958;51.232;6.826;2023-08-17T02:49:25;17.70;99.90
37050;DHT22;22958;51.232;6.826;2023-08-17T02:51:50;17.70;99.90
37050;DHT22;22958;51.232;6.826;2023-08-17T02:54:16;17.60;99.90
37050;DHT22;22958;51.232;6.826;2023-08-17T02:56:41;17.60;99.90
37050;DHT22;22958;51.232;6.826;2023-08-17T02:59:07;17.60;99.90
37050;DHT22;22958;51.232;6.826;2023-08-17T03:01:33;17.60;99.90
37050;DHT22;22958;51.232;6.826;2023-08-17T03:03:58;17.60;99.90
37050;DHT22;22958;51.232;6.826;2023-08-17T03:06:24;17.50;99.90
37050;DHT22;22958;51.232;6.826;2023-08-17T03:08:49;17.60;99.90
37050;DHT22;22958;51.232;6.826;2023-08-17T03:11:15;17.70;99.90
37050;DHT22;22958;51.232;6.826;2023-08-17T03:13:40;17.70;99.90
37050;DHT22;22958;51.232;6.826;2023-08-17T03:16:06;17.70;99.90
37050;DHT22;22958;51.232;6.826;2023-08-17T03:18:31;17.70;99.90
37050;DHT22;22958;51.232;6.826;2023-08-17T03:20:57;17.70;99.90
37050;DHT22;22958;51.232;6.826;2023-08-17T03:23:22;17.80;99.90
37050;DHT22;22958;51.232;6.826;2023-08-17T03:25:52;17.70;99.90
37050;DHT22;22958;51.232;6.826;2023-08-17T03:28:17;17.70;99.90
37050;DHT22;22958;51.232;6.826;2023-08-17T03:30:43;17.70;99.90
37050;DHT22;22958;51.232;6.826;2023-08-17T03:33:09;17.70;99.90
37050;DHT22;22958;51.232;6.826;2023-08-17T03:35:34;17.70;99.90
37050;DHT22;22958;51.232;6.826;2023-08-17T03:38:00;17.70;99.90
37050;DHT22;22958;51.232;6.826;2023-08-17T03:40:26;17.70;99.90
37050;DHT22;22958;51.232;6.826;2023-08-17T03:42:51;17.80;99.90
37050;DHT22;22958;51.232;6.826;2023-08-17T03:45:18;17.80;99.90
37050;DHT22;22958;51.232;6.826;2023-08-17T03:47:43;17.80;99.90
37050;DHT22;22958;51.232;6.826;2023-08-17T03:50:09;17.80;99.90
37050;DHT22;22958;51.232;6.826;2023-08-17T03:52:35;17.80;99.90
37050;DHT22;22958;51.232;6.826;2023-08-17T03:55:01;17.70;99.90
37050;DHT22;22958;51.232;6.826;2023-08-17T03:57:26;17.70;99.90
37050;DHT22;22958;51.232;6.826;2023-08-17T03:59:52;17.70;99.90
37050;DHT22;22958;51.232;6.826;2023-08-17T04:02:17;17.70;99.90
37050;DHT22;22958;51.232;6.826;2023-08-17T04:04:43;17.60;99.90
37050;DHT22;22958;51.232;6.826;2023-08-17T04:07:09;17.60;99.90
37050;DHT22;22958;51.232;6.826;2023-08-17T04:09:34;17.60;99.90
37050;DHT22;22958;51.232;6.826;2023-08-17T04:12:00;17.70;99.90
37050;DHT22;22958;51.232;6.826;2023-08-17T04:14:26;17.70;99.90
37050;DHT22;22958;51.232;6.826;2023-08-17T04:16:52;17.70;99.90
37050;DHT22;22958;51.232;6.826;2023-08-17T04:19:17;17.70;99.90
37050;DHT22;22958;51.232;6.826;2023-08-17T04:21:43;17.70;99.90
37050;DHT22;22958;51.232;6.826;2023-08-17T04:24:08;17.60;99.90
37050;DHT22;22958;51.232;6.826;2023-08-17T04:26:34;17.70;99.90
37050;DHT22;22958;51.232;6.826;2023-08-17T04:28:59;17.70;99.90
37050;DHT22;22958;51.232;6.826;2023-08-17T04:31:25;17.80;99.90
37050;DHT22;22958;51.232;6.826;2023-08-17T04:33:51;17.80;99.90
37050;DHT22;22958;51.232;6.826;2023-08-17T04:36:17;17.80;99.90
37050;DHT22;22958;51.232;6.826;2023-08-17T04:38:43;17.80;99.90
37050;DHT22;22958;51.232;6.826;2023-08-17T04:41:08;17.90;99.90
37050;DHT22;22958;51.232;6.826;2023-08-17T04:43:34;17.90;99.90
37050;DHT22;22958;51.232;6.826;2023-08-17T04:45:59;17.90;99.90
37050;DHT22;22958;51.232;6.826;2023-08-17T04:48:25;17.90;99.90
37050;DHT22;22958;51.232;6.826;2023-08-17T04:50:51;17.90;99.90
37050;DHT22;22958;51.232;6.826;2023-08-17T04:53:17;17.90;99.90
37050;DHT22;22958;51.232;6.826;2023-08-17T04:55:42;17.90;99.90
37050;DHT22;22958;51.232;6.826;2023-08-17T04:58:08;18.00;99.90
37050;DHT22;22958;51.232;6.826;2023-08-17T05:00:33;17.90;99.90
37050;DHT22;22958;51.232;6.826;2023-08-17T05:02:59;18.00;99.90
37050;DHT22;22958;51.232;6.826;2023-08-17T05:05:24;18.00;99.90
37050;DHT22;22958;51.232;6.826;2023-08-17T05:07:52;17.90;99.90
37050;DHT22;22958;51.232;6.826;2023-08-17T05:10:18;17.90;99.90
37050;DHT22;22958;51.232;6.826;2023-08-17T05:12:43;18.00;99.90
37050;DHT22;22958;51.232;6.826;2023-08-17T05:15:09;17.90;99.90
37050;DHT22;22958;51.232;6.826;2023-08-17T05:17:35;18.00;99.90
37050;DHT22;22958;51.232;6.826;2023-08-17T05:20:00;18.00;99.90
37050;DHT22;22958;51.232;6.826;2023-08-17T05:22:27;18.10;99.90
37050;DHT22;22958;51.232;6.826;2023-08-17T05:24:53;18.10;99.90
37050;DHT22;22958;51.232;6.826;2023-08-17T05:27:18;18.00;99.90
37050;DHT22;22958;51.232;6.826;2023-08-17T05:29:44;18.00;99.90
37050;DHT22;22958;51.232;6.826;2023-08-17T05:32:09;18.10;99.90
37050;DHT22;22958;51.232;6.826;2023-08-17T05:34:35;18.20;99.90
37050;DHT22;22958;51.232;6.826;2023-08-17T05:37:00;18.20;99.90
37050;DHT22;22958;51.232;6.826;2023-08-17T05:39:26;18.20;99.90
37050;DHT22;22958;51.232;6.826;2023-08-17T05:41:51;18.20;99.90
37050;DHT22;22958;51.232;6.826;2023-08-17T05:44:17;18.20;99.90
37050;DHT22;22958;51.232;6.826;2023-08-17T05:46:43;18.30;99.90
37050;DHT22;22958;51.232;6.826;2023-08-17T05:49:09;18.20;99.90
37050;DHT22;22958;51.232;6.826;2023-08-17T05:51:34;18.20;99.90
37050;DHT22;22958;51.232;6.826;2023-08-17T05:53:59;18.20;99.90
37050;DHT22;22958;51.232;6.826;2023-08-17T05:56:25;18.20;99.90
37050;DHT22;22958;51.232;6.826;2023-08-17T05:58:51;18.20;99.90
37050;DHT22;22958;51.232;6.826;2023-08-17T06:01:16;18.30;99.90
37050;DHT22;22958;51.232;6.826;2023-08-17T06:03:42;18.30;99.90
37050;DHT22;22958;51.232;6.826;2023-08-17T06:06:09;18.30;99.90
37050;DHT22;22958;51.232;6.826;2023-08-17T06:08:34;18.40;99.90
37050;DHT22;22958;51.232;6.826;2023-08-17T06:11:00;18.50;99.90
37050;DHT22;22958;51.232;6.826;2023-08-17T06:13:26;18.60;99.90
37050;DHT22;22958;51.232;6.826;2023-08-17T06:15:51;18.60;99.90
37050;DHT22;22958;51.232;6.826;2023-08-17T06:18:17;18.40;99.90
37050;DHT22;22958;51.232;6.826;2023-08-17T06:20:42;18.40;99.90
37050;DHT22;22958;51.232;6.826;2023-08-17T06:23:08;18.50;99.90
37050;DHT22;22958;51.232;6.826;2023-08-17T06:25:34;18.50;99.90
37050;DHT22;22958;51.232;6.826;2023-08-17T06:28:00;18.60;99.90
37050;DHT22;22958;51.232;6.826;2023-08-17T06:30:25;18.60;99.90
37050;DHT22;22958;51.232;6.826;2023-08-17T06:32:51;18.60;99.90
37050;DHT22;22958;51.232;6.826;2023-08-17T06:35:17;18.40;99.90
37050;DHT22;22958;51.232;6.826;2023-08-17T06:37:42;18.40;99.90
37050;DHT22;22958;51.232;6.826;2023-08-17T06:40:08;18.50;99.90
37050;DHT22;22958;51.232;6.826;2023-08-17T06:42:37;18.30;99.90
37050;DHT22;22958;51.232;6.826;2023-08-17T06:45:03;18.40;99.90
37050;DHT22;22958;51.232;6.826;2023-08-17T06:47:29;18.30;99.90
37050;DHT22;22958;51.232;6.826;2023-08-17T06:49:55;18.50;99.90
37050;DHT22;22958;51.232;6.826;2023-08-17T06:52:23;18.60;99.90
37050;DHT22;22958;51.232;6.826;2023-08-17T06:54:48;18.60;99.90
37050;DHT22;22958;51.232;6.826;2023-08-17T06:57:14;18.60;99.90
37050;DHT22;22958;51.232;6.826;2023-08-17T06:59:40;18.80;99.90
37050;DHT22;22958;51.232;6.826;2023-08-17T07:02:06;18.90;99.90
37050;DHT22;22958;51.232;6.826;2023-08-17T07:04:31;18.80;99.90
37050;DHT22;22958;51.232;6.826;2023-08-17T07:06:57;18.90;99.90
37050;DHT22;22958;51.232;6.826;2023-08-17T07:09:22;19.00;99.90
37050;DHT22;22958;51.232;6.826;2023-08-17T07:11:48;19.10;99.90
37050;DHT22;22958;51.232;6.826;2023-08-17T07:14:14;19.20;99.90
37050;DHT22;22958;51.232;6.826;2023-08-17T07:16:39;19.00;99.90
37050;DHT22;22958;51.232;6.826;2023-08-17T07:19:05;19.20;99.90
37050;DHT22;22958;51.232;6.826;2023-08-17T07:21:30;19.40;99.90
37050;DHT22;22958;51.232;6.826;2023-08-17T07:23:56;19.60;99.90
37050;DHT22;22958;51.232;6.826;2023-08-17T07:26:22;19.60;99.90
37050;DHT22;22958;51.232;6.826;2023-08-17T07:28:48;19.80;99.90
37050;DHT22;22958;51.232;6.826;2023-08-17T07:31:14;19.80;99.90
37050;DHT22;22958;51.232;6.826;2023-08-17T07:33:39;19.90;99.90
37050;DHT22;22958;51.232;6.826;2023-08-17T07:36:05;20.10;99.90
37050;DHT22;22958;51.232;6.826;2023-08-17T07:38:31;20.20;99.90
37050;DHT22;22958;51.232;6.826;2023-08-17T07:40:56;20.20;99.90
37050;DHT22;22958;51.232;6.826;2023-08-17T07:43:23;20.30;99.90
37050;DHT22;22958;51.232;6.826;2023-08-17T07:45:56;20.20;99.90
37050;DHT22;22958;51.232;6.826;2023-08-17T07:48:21;20.20;99.90
37050;DHT22;22958;51.232;6.826;2023-08-17T07:50:51;20.40;99.90
37050;DHT22;22958;51.232;6.826;2023-08-17T07:53:17;20.20;99.90
37050;DHT22;22958;51.232;6.826;2023-08-17T07:55:43;20.20;99.90
37050;DHT22;22958;51.232;6.826;2023-08-17T07:58:09;20.10;99.90
37050;DHT22;22958;51.232;6.826;2023-08-17T08:00:34;20.20;99.90
37050;DHT22;22958;51.232;6.826;2023-08-17T08:03:00;20.20;99.90
37050;DHT22;22958;51.232;6.826;2023-08-17T08:05:26;20.10;99.90
37050;DHT22;22958;51.232;6.826;2023-08-17T08:07:51;20.00;99.90
37050;DHT22;22958;51.232;6.826;2023-08-17T08:10:17;19.80;99.90
37050;DHT22;22958;51.232;6.826;2023-08-17T08:12:42;19.80;99.90
37050;DHT22;22958;51.232;6.826;2023-08-17T08:15:08;19.80;99.90
37050;DHT22;22958;51.232;6.826;2023-08-17T08:17:34;19.70;99.90
37050;DHT22;22958;51.232;6.826;2023-08-17T08:19:59;19.90;99.90
37050;DHT22;22958;51.232;6.826;2023-08-17T08:22:25;19.70;99.90
37050;DHT22;22958;51.232;6.826;2023-08-17T08:24:50;19.80;99.90
37050;DHT22;22958;51.232;6.826;2023-08-17T08:27:16;19.80;99.90
37050;DHT22;22958;51.232;6.826;2023-08-17T08:29:41;19.80;99.90
37050;DHT22;22958;51.232;6.826;2023-08-17T08:32:07;19.80;99.90
37050;DHT22;22958;51.232;6.826;2023-08-17T08:34:33;20.00;99.90
37050;DHT22;22958;51.232;6.826;2023-08-17T08:36:59;19.90;99.90
37050;DHT22;22958;51.232;6.826;2023-08-17T08:39:27;20.00;99.90
37050;DHT22;22958;51.232;6.826;2023-08-17T08:41:53;19.70;99.90
37050;DHT22;22958;51.232;6.826;2023-08-17T08:44:19;19.60;99.90
37050;DHT22;22958;51.232;6.826;2023-08-17T08:46:45;19.70;99.90
37050;DHT22;22958;51.232;6.826;2023-08-17T08:49:11;19.80;99.90
37050;DHT22;22958;51.232;6.826;2023-08-17T08:51:42;20.00;99.90
37050;DHT22;22958;51.232;6.826;2023-08-17T08:54:13;20.00;99.90
37050;DHT22;22958;51.232;6.826;2023-08-17T08:56:42;19.70;99.90
37050;DHT22;22958;51.232;6.826;2023-08-17T08:59:08;19.80;99.90
37050;DHT22;22958;51.232;6.826;2023-08-17T09:01:35;20.00;99.90
37050;DHT22;22958;51.232;6.826;2023-08-17T09:04:00;20.10;99.90
37050;DHT22;22958;51.232;6.826;2023-08-17T09:06:27;19.90;99.90
37050;DHT22;22958;51.232;6.826;2023-08-17T09:08:55;19.70;99.90
37050;DHT22;22958;51.232;6.826;2023-08-17T09:11:22;19.60;99.90
37050;DHT22;22958;51.232;6.826;2023-08-17T09:13:47;20.00;99.90
37050;DHT22;22958;51.232;6.826;2023-08-17T09:16:13;20.10;99.90
37050;DHT22;22958;51.232;6.826;2023-08-17T09:18:38;19.90;99.90
37050;DHT22;22958;51.232;6.826;2023-08-17T09:21:04;20.10;99.90
37050;DHT22;22958;51.232;6.826;2023-08-17T09:23:30;20.30;99.90
37050;DHT22;22958;51.232;6.826;2023-08-17T09:25:56;20.20;99.90
37050;DHT22;22958;51.232;6.826;2023-08-17T09:28:23;19.90;99.90
37050;DHT22;22958;51.232;6.826;2023-08-17T09:33:16;19.90;99.90
37050;DHT22;22958;51.232;6.826;2023-08-17T09:35:42;19.90;99.90
37050;DHT22;22958;51.232;6.826;2023-08-17T09:38:08;20.00;99.90
37050;DHT22;22958;51.232;6.826;2023-08-17T09:40:33;20.00;99.90
37050;DHT22;22958;51.232;6.826;2023-08-17T09:42:59;19.90;99.90
37050;DHT22;22958;51.232;6.826;2023-08-17T09:45:26;19.70;99.90
37050;DHT22;22958;51.232;6.826;2023-08-17T09:47:53;20.00;99.90
37050;DHT22;22958;51.232;6.826;2023-08-17T09:50:22;20.20;99.90
37050;DHT22;22958;51.232;6.826;2023-08-17T09:52:48;20.00;99.90
37050;DHT22;22958;51.232;6.826;2023-08-17T09:55:17;20.00;99.90
37050;DHT22;22958;51.232;6.826;2023-08-17T09:57:44;20.30;99.90
37050;DHT22;22958;51.232;6.826;2023-08-17T10:00:11;20.60;99.90
37050;DHT22;22958;51.232;6.826;2023-08-17T10:02:37;21.10;99.90
37050;DHT22;22958;51.232;6.826;2023-08-17T10:05:04;21.30;99.90
37050;DHT22;22958;51.232;6.826;2023-08-17T10:07:31;21.20;99.90
37050;DHT22;22958;51.232;6.826;2023-08-17T10:10:04;21.00;99.90
37050;DHT22;22958;51.232;6.826;2023-08-17T10:12:35;21.10;99.90
37050;DHT22;22958;51.232;6.826;2023-08-17T10:15:08;21.40;99.90
37050;DHT22;22958;51.232;6.826;2023-08-17T10:17:42;21.40;99.90
37050;DHT22;22958;51.232;6.826;2023-08-17T10:20:09;21.30;99.90
37050;DHT22;22958;51.232;6.826;2023-08-17T10:22:52;21.40;99.90
37050;DHT22;22958;51.232;6.826;2023-08-17T10:25:21;21.40;99.90
37050;DHT22;22958;51.232;6.826;2023-08-17T10:27:49;21.60;99.90
37050;DHT22;22958;51.232;6.826;2023-08-17T10:30:17;21.60;99.90
37050;DHT22;22958;51.232;6.826;2023-08-17T10:32:43;21.70;99.90
37050;DHT22;22958;51.232;6.826;2023-08-17T10:35:13;21.70;99.90
37050;DHT22;22958;51.232;6.826;2023-08-17T10:37:39;21.30;99.90
37050;DHT22;22958;51.232;6.826;2023-08-17T10:40:05;21.20;99.90
37050;DHT22;22958;51.232;6.826;2023-08-17T10:42:32;21.00;99.90
37050;DHT22;22958;51.232;6.826;2023-08-17T10:44:58;21.10;99.90
37050;DHT22;22958;51.232;6.826;2023-08-17T10:47:30;21.30;99.90
37050;DHT22;22958;51.232;6.826;2023-08-17T10:49:58;21.50;99.90
37050;DHT22;22958;51.232;6.826;2023-08-17T10:52:31;21.70;99.90
37050;DHT22;22958;51.232;6.826;2023-08-17T10:55:00;21.80;99.90
37050;DHT22;22958;51.232;6.826;2023-08-17T10:57:36;21.80;99.90
37050;DHT22;22958;51.232;6.826;2023-08-17T11:00:23;21.50;99.90
37050;DHT22;22958;51.232;6.826;2023-08-17T11:02:53;21.60;99.90
37050;DHT22;22958;51.232;6.826;2023-08-17T11:05:40;21.70;99.90
37050;DHT22;22958;51.232;6.826;2023-08-17T11:08:07;21.80;99.90
37050;DHT22;22958;51.232;6.826;2023-08-17T11:10:36;22.00;99.90
37050;DHT22;22958;51.232;6.826;2023-08-17T11:13:03;22.10;99.90
37050;DHT22;22958;51.232;6.826;2023-08-17T11:15:37;21.70;99.90
37050;DHT22;22958;51.232;6.826;2023-08-17T11:18:11;21.70;99.90
37050;DHT22;22958;51.232;6.826;2023-08-17T11:20:38;22.20;99.90
37050;DHT22;22958;51.232;6.826;2023-08-17T11:23:05;22.60;99.90
37050;DHT22;22958;51.232;6.826;2023-08-17T11:25:31;22.90;99.90
37050;DHT22;22958;51.232;6.826;2023-08-17T11:27:59;23.10;99.90
37050;DHT22;22958;51.232;6.826;2023-08-17T11:30:25;22.90;99.90
37050;DHT22;22958;51.232;6.826;2023-08-17T11:32:52;22.70;99.90
37050;DHT22;22958;51.232;6.826;2023-08-17T11:35:18;22.90;99.90
37050;DHT22;22958;51.232;6.826;2023-08-17T11:37:44;23.10;99.90
37050;DHT22;22958;51.232;6.826;2023-08-17T11:40:13;23.50;99.90
37050;DHT22;22958;51.232;6.826;2023-08-17T11:42:39;23.60;99.90
37050;DHT22;22958;51.232;6.826;2023-08-17T11:45:05;24.00;99.90
37050;DHT22;22958;51.232;6.826;2023-08-17T11:47:32;23.80;99.90
37050;DHT22;22958;51.232;6.826;2023-08-17T11:50:02;23.30;99.90
37050;DHT22;22958;51.232;6.826;2023-08-17T11:52:28;22.80;99.90
37050;DHT22;22958;51.232;6.826;2023-08-17T11:54:57;22.90;99.90
37050;DHT22;22958;51.232;6.826;2023-08-17T11:57:23;23.30;99.90
37050;DHT22;22958;51.232;6.826;2023-08-17T11:59:48;23.40;99.90
37050;DHT22;22958;51.232;6.826;2023-08-17T12:02:14;23.20;99.90
37050;DHT22;22958;51.232;6.826;2023-08-17T12:04:40;23.00;99.90
37050;DHT22;22958;51.232;6.826;2023-08-17T12:07:05;23.20;99.90
37050;DHT22;22958;51.232;6.826;2023-08-17T12:09:34;23.30;99.90
37050;DHT22;22958;51.232;6.826;2023-08-17T12:12:01;23.50;99.90
37050;DHT22;22958;51.232;6.826;2023-08-17T12:14:27;23.60;99.90
37050;DHT22;22958;51.232;6.826;2023-08-17T12:16:53;23.90;99.90
37050;DHT22;22958;51.232;6.826;2023-08-17T12:19:20;24.30;99.90
37050;DHT22;22958;51.232;6.826;2023-08-17T12:21:49;24.00;99.90
37050;DHT22;22958;51.232;6.826;2023-08-17T12:24:14;23.30;99.90
37050;DHT22;22958;51.232;6.826;2023-08-17T12:26:42;23.00;99.90
37050;DHT22;22958;51.232;6.826;2023-08-17T12:29:09;23.00;99.90
37050;DHT22;22958;51.232;6.826;2023-08-17T12:31:35;23.20;99.90
37050;DHT22;22958;51.232;6.826;2023-08-17T12:34:01;23.30;99.90
37050;DHT22;22958;51.232;6.826;2023-08-17T12:36:27;23.00;99.90
37050;DHT22;22958;51.232;6.826;2023-08-17T12:38:52;22.60;99.90
37050;DHT22;22958;51.232;6.826;2023-08-17T12:41:18;22.50;99.90
37050;DHT22;22958;51.232;6.826;2023-08-17T12:43:43;22.80;99.90
37050;DHT22;22958;51.232;6.826;2023-08-17T12:46:09;23.00;99.90
37050;DHT22;22958;51.232;6.826;2023-08-17T12:48:36;23.20;99.90
37050;DHT22;22958;51.232;6.826;2023-08-17T12:51:02;23.20;99.90
37050;DHT22;22958;51.232;6.826;2023-08-17T12:53:27;23.00;99.90
37050;DHT22;22958;51.232;6.826;2023-08-17T12:55:53;22.90;99.90
37050;DHT22;22958;51.232;6.826;2023-08-17T12:58:19;23.00;99.90
37050;DHT22;22958;51.232;6.826;2023-08-17T13:00:44;22.90;99.90
37050;DHT22;22958;51.232;6.826;2023-08-17T13:03:10;22.70;99.90
37050;DHT22;22958;51.232;6.826;2023-08-17T13:05:35;22.60;99.90
37050;DHT22;22958;51.232;6.826;2023-08-17T13:08:01;22.80;99.90
37050;DHT22;22958;51.232;6.826;2023-08-17T13:10:27;22.30;99.90
37050;DHT22;22958;51.232;6.826;2023-08-17T13:12:52;21.80;99.90
37050;DHT22;22958;51.232;6.826;2023-08-17T13:15:22;21.70;99.90
37050;DHT22;22958;51.232;6.826;2023-08-17T13:17:47;21.70;99.90
37050;DHT22;22958;51.232;6.826;2023-08-17T13:20:13;21.70;99.90
37050;DHT22;22958;51.232;6.826;2023-08-17T13:22:39;22.00;99.90
37050;DHT22;22958;51.232;6.826;2023-08-17T13:25:05;22.30;99.90
37050;DHT22;22958;51.232;6.826;2023-08-17T13:27:31;22.90;99.90
37050;DHT22;22958;51.232;6.826;2023-08-17T13:29:56;23.10;99.90
37050;DHT22;22958;51.232;6.826;2023-08-17T13:32:24;23.70;99.90
37050;DHT22;22958;51.232;6.826;2023-08-17T13:34:50;23.70;99.90
37050;DHT22;22958;51.232;6.826;2023-08-17T13:37:16;24.00;99.90
37050;DHT22;22958;51.232;6.826;2023-08-17T13:39:42;23.50;99.90
37050;DHT22;22958;51.232;6.826;2023-08-17T13:42:08;23.00;99.90
37050;DHT22;22958;51.232;6.826;2023-08-17T13:44:33;23.00;99.90
37050;DHT22;22958;51.232;6.826;2023-08-17T13:46:59;23.40;99.90
37050;DHT22;22958;51.232;6.826;2023-08-17T13:49:24;23.10;99.90
37050;DHT22;22958;51.232;6.826;2023-08-17T13:51:50;23.20;99.90
37050;DHT22;22958;51.232;6.826;2023-08-17T13:54:16;23.30;99.90
37050;DHT22;22958;51.232;6.826;2023-08-17T13:56:42;23.40;99.90
37050;DHT22;22958;51.232;6.826;2023-08-17T13:59:07;23.20;99.90
37050;DHT22;22958;51.232;6.826;2023-08-17T14:01:33;23.20;99.90
37050;DHT22;22958;51.232;6.826;2023-08-17T14:03:59;23.20;99.90
37050;DHT22;22958;51.232;6.826;2023-08-17T14:06:26;23.00;99.90
37050;DHT22;22958;51.232;6.826;2023-08-17T14:08:51;23.70;99.90
37050;DHT22;22958;51.232;6.826;2023-08-17T14:11:17;23.60;99.90
37050;DHT22;22958;51.232;6.826;2023-08-17T14:13:42;23.80;99.90
37050;DHT22;22958;51.232;6.826;2023-08-17T14:16:08;24.00;99.90
37050;DHT22;22958;51.232;6.826;2023-08-17T14:18:33;24.20;99.90
37050;DHT22;22958;51.232;6.826;2023-08-17T14:20:59;24.30;99.90
37050;DHT22;22958;51.232;6.826;2023-08-17T14:23:24;24.30;99.90
37050;DHT22;22958;51.232;6.826;2023-08-17T14:25:50;25.10;99.90
37050;DHT22;22958;51.232;6.826;2023-08-17T14:28:17;25.90;99.90
37050;DHT22;22958;51.232;6.826;2023-08-17T14:30:43;26.40;99.90
37050;DHT22;22958;51.232;6.826;2023-08-17T14:33:09;26.40;99.90
37050;DHT22;22958;51.232;6.826;2023-08-17T14:35:34;26.60;99.90
37050;DHT22;22958;51.232;6.826;2023-08-17T14:38:00;25.60;99.90
37050;DHT22;22958;51.232;6.826;2023-08-17T14:40:27;25.20;99.90
37050;DHT22;22958;51.232;6.826;2023-08-17T14:42:52;25.00;99.90
37050;DHT22;22958;51.232;6.826;2023-08-17T14:45:18;25.00;99.90
37050;DHT22;22958;51.232;6.826;2023-08-17T14:47:43;24.70;99.90
37050;DHT22;22958;51.232;6.826;2023-08-17T14:50:09;24.60;99.90
37050;DHT22;22958;51.232;6.826;2023-08-17T14:52:35;24.10;99.90
37050;DHT22;22958;51.232;6.826;2023-08-17T14:55:01;24.10;99.90
37050;DHT22;22958;51.232;6.826;2023-08-17T14:57:27;23.70;99.90
37050;DHT22;22958;51.232;6.826;2023-08-17T14:59:52;23.70;99.90
37050;DHT22;22958;51.232;6.826;2023-08-17T15:02:18;23.30;99.90
37050;DHT22;22958;51.232;6.826;2023-08-17T15:04:44;23.30;99.90
37050;DHT22;22958;51.232;6.826;2023-08-17T15:07:09;23.40;99.90
37050;DHT22;22958;51.232;6.826;2023-08-17T15:09:37;23.50;99.90
37050;DHT22;22958;51.232;6.826;2023-08-17T15:12:03;23.30;99.90
37050;DHT22;22958;51.232;6.826;2023-08-17T15:14:29;23.20;99.90
37050;DHT22;22958;51.232;6.826;2023-08-17T15:16:54;23.10;99.90
37050;DHT22;22958;51.232;6.826;2023-08-17T15:19:20;22.90;99.90
37050;DHT22;22958;51.232;6.826;2023-08-17T15:21:45;22.80;99.90
37050;DHT22;22958;51.232;6.826;2023-08-17T15:24:11;22.70;99.90
37050;DHT22;22958;51.232;6.826;2023-08-17T15:26:37;22.80;99.90
37050;DHT22;22958;51.232;6.826;2023-08-17T15:29:02;23.00;99.90